• Join FlightAware (Why Join?)
  • Login
  • US Flag 
06:16PM EDT


 

Airport Tracker/Info


-or-


 

Live Flight TrackerFlight Track Log ✈ DAL369 ✈ 23-Jun-2013 ✈ KATL - MNMG / MGA

Flight Track Log - Related Links

Times and Time Zones

All times are in EDT time to prevent confusion due to time zone crossing. See the DAL369 flight status page for this flight to view local times or setup timezone preferences in your user account.

Time Position Orientation Groundspeed Altitude Reporting Facility
EDT Latitude Longitude Course Direction KTS MPH feet Rate Location/Type
08:07PM 33.6333 -84.3833 164° South 182 209 2,500  Level Atlanta TRACON
08:08PM 33.6167 -84.3167 107° East 233 268 3,200 1,500 Climbing Atlanta TRACON
08:09PM 33.3630 -84.2616 168° South  Level FlightAware Approximate
08:09PM 33.5500 -84.2833 157° South 273 314 5,500  Level Atlanta TRACON
08:10PM 33.2418 -84.2312 168° South  Level FlightAware Approximate
08:10PM 33.4833 -84.2833 180° South 282 325 7,800  Level Atlanta TRACON
08:11PM 33.1205 -84.2009 168° South  Level FlightAware Approximate
08:12PM 32.9995 -84.1721 164° South  Level FlightAware Approximate
08:12PM 33.2931 -84.2575 174° South 298 343 11,300  Level Atlanta Center
08:13PM 33.1931 -84.2300 167° South 349 402 12,700 1,680 Climbing Atlanta Center
08:14PM 33.0886 -84.2025 168° South 380 437 14,700 1,680 Climbing Atlanta Center
08:15PM 32.9864 -84.1675 164° South 380 437 16,100 1,500 Climbing Atlanta Center
08:16PM 32.8800 -84.1256 162° South 385 443 17,700 1,320 Climbing Atlanta Center
08:17PM 32.7714 -84.0833 162° South 397 457 18,800 1,140 Climbing Atlanta Center
08:18PM 32.6608 -84.0364 160° South 409 471 20,000 1,200 Climbing Atlanta Center
08:19PM 32.5461 -83.9869 160° South 420 483 21,200 1,620 Climbing Atlanta Center
08:20PM 32.4333 -83.9428 162° South 430 495 23,300 1,680 Climbing Atlanta Center
08:21PM 32.3247 -83.8986 161° South 425 489 24,600 1,200 Climbing Atlanta Center
08:22PM 32.2139 -83.8547 161° South 425 489 25,800 960 Climbing Atlanta Center
08:24PM 32.0569 -83.7872 160° South 426 490 27,000 540 Climbing Jacksonville Center
08:25PM 31.9403 -83.7397 161° South 432 497 27,200 180 Climbing Jacksonville Center
08:26PM 31.8175 -83.6919 162° South 443 510 27,400 540 Climbing Jacksonville Center
08:27PM 31.6967 -83.6372 159° South 456 525 28,300 840 Climbing Jacksonville Center
08:28PM 31.5592 -83.5875 163° South 475 547 29,100 900 Climbing Jacksonville Center
08:29PM 31.4342 -83.5403 162° South 480 552 30,100 840 Climbing Jacksonville Center
08:30PM 31.3111 -83.4908 161° South 475 547 30,800 540 Climbing Jacksonville Center
08:31PM 31.1903 -83.4414 161° South 469 540 31,300 540 Climbing Jacksonville Center
08:32PM 31.0653 -83.3922 161° South 469 540 32,000 720 Climbing Jacksonville Center
08:33PM 30.9422 -83.3456 162° South 464 534 32,800 480 Climbing Jacksonville Center
08:34PM 30.8214 -83.2967 161° South 464 534 33,000 60 Climbing Jacksonville Center
08:35PM 30.7192 -83.2478 158° South 453 521 33,000  Level Jacksonville Center
08:36PM 30.5981 -83.1869 157° South 458 527 33,000  Level Jacksonville Center
08:37PM 30.4875 -83.1289 156° South 452 520 33,000 -60 Level Jacksonville Center
08:38PM 30.3708 -83.0708 157° South 452 520 32,900  Descending Jacksonville Center
08:39PM 30.2603 -83.0175 157° South 447 514 33,000  Climbing Jacksonville Center
08:40PM 30.1433 -82.9597 157° South 447 514 33,000  Level Jacksonville Center
08:41PM 30.0161 -82.8972 157° South 447 514 33,000  Level Jacksonville Center
08:42PM 29.8992 -82.8400 157° South 451 519 33,000  Level Jacksonville Center
08:43PM 29.7800 -82.7850 158° South 461 531 33,000  Level Jacksonville Center
08:44PM 29.6650 -82.7275 157° South 461 531 33,000  Level Jacksonville Center
08:45PM 29.5481 -82.6658 155° Southeast 455 524 33,000 -60 Level Jacksonville Center
08:46PM 29.4372 -82.5875 148° Southeast 460 529 32,900  Descending Jacksonville Center
08:47PM 29.3264 -82.5139 150° Southeast 460 529 33,000  Climbing Jacksonville Center
08:48PM 29.2011 -82.4764 165° South 451 519 33,000  Level Jacksonville Center
08:49PM 29.0739 -82.4650 176° South 451 519 33,000  Level Jacksonville Center
08:50PM 28.9464 -82.4536 176° South 456 525 33,000 -60 Level Jacksonville Center
08:51PM 28.8192 -82.4422 176° South 461 531 32,900  Descending Jacksonville Center
08:52PM 28.6894 -82.4286 175° South 461 531 33,000  Climbing Jacksonville Center
08:53PM 28.5789 -82.4222 177° South 461 531 33,000 -60 Level Jacksonville Center
08:55PM 28.3106 -82.3975 175° South 462 532 32,900  Descending Miami Center
08:56PM 28.1839 -82.3867 176° South 462 532 33,000  Climbing Miami Center
08:57PM 28.0569 -82.3756 176° South 462 532 33,000 -60 Level Miami Center
08:58PM 27.9331 -82.3414 166° South 462 532 32,900 -60 Descending Miami Center
08:59PM 27.8114 -82.3075 166° South 462 532 32,900  Level Miami Center
09:00PM 27.6856 -82.2686 165° South 472 543 33,000  Climbing Miami Center
09:01PM 27.5472 -82.2294 166° South 472 543 33,000  Level Miami Center
09:02PM 27.4233 -82.1931 165° South 467 537 33,000  Level Miami Center
09:03PM 27.3097 -82.1597 165° South 467 537 33,000  Level Miami Center
09:04PM 27.1858 -82.1214 165° South 467 537 33,000  Level Miami Center
09:05PM 27.0497 -82.0828 166° South 467 537 33,000 -60 Level Miami Center
09:06PM 26.9256 -82.0492 166° South 467 537 32,900 -60 Descending Miami Center
09:07PM 26.8017 -82.0133 166° South 467 537 32,900  Level Miami Center
09:08PM 26.6778 -81.9756 165° South 467 537 33,000  Climbing Miami Center
09:09PM 26.5536 -81.9422 166° South 467 537 32,900 -60 Descending Miami Center
09:10PM 26.4358 -81.9047 164° South 467 537 32,900  Level Miami Center
09:11PM 26.3078 -81.8692 166° South 467 537 32,900  Level Miami Center
09:12PM 26.1858 -81.8317 165° South 467 537 33,000  Climbing Miami Center
09:13PM 26.0597 -81.7986 167° South 467 537 33,000  Level Miami Center
09:14PM 25.9356 -81.7611 165° South 467 537 33,000 -60 Level Miami Center
09:15PM 25.8094 -81.7258 166° South 467 537 32,900  Descending Miami Center
09:16PM 25.6872 -81.6911 166° South 467 537 33,000  Climbing Miami Center
09:17PM 25.5611 -81.6539 165° South 467 537 32,900 -60 Descending Miami Center
09:18PM 25.4369 -81.6189 166° South 467 537 32,900  Level Miami Center
09:19PM 25.3108 -81.5842 166° South 473 544 32,900  Level Miami Center
09:20PM 25.1867 -81.5494 166° South 473 544 32,900  Level Miami Center
09:21PM 25.0603 -81.5150 166° South 468 539 33,000  Climbing Miami Center
09:22PM 24.9342 -81.4781 165° South 468 539 33,000  Level Miami Center
09:23PM 24.8097 -81.4436 166° South 468 539 33,000  Level Miami Center
09:24PM 24.6814 -81.4092 166° South 468 539 33,000 -60 Level Miami Center
09:25PM 24.5592 -81.3728 165° South 468 539 32,900 -60 Descending Miami Center
09:26PM 24.4331 -81.3361 165° South 468 539 32,900  Level Miami Center
09:27PM 24.3067 -81.3022 166° South 468 539 32,900  Level Miami Center
09:28PM 24.1803 -81.2681 166° South 468 539 33,000  Climbing Miami Center
09:29PM 24.0539 -81.2339 166° South 468 539 32,900 -60 Descending Miami Center
09:30PM 23.9244 -81.2342 180° South 462 532 32,900  Level Miami Center
09:31PM 23.8067 -81.2617 192° South 462 532 33,000 60 Climbing Miami Center
09:33PM 23.5982 -81.3104 192° South  Level FlightAware Approximate
09:40PM 22.7429 -81.4630 183° South  Level FlightAware Approximate
09:41PM 22.6188 -81.4689 183° South  Level FlightAware Approximate
09:42PM 22.4947 -81.4747 182° South  Level FlightAware Approximate
09:43PM 22.3706 -81.4806 182° South  Level FlightAware Approximate
09:44PM 22.2465 -81.4864 182° South  Level FlightAware Approximate
09:45PM 22.1225 -81.4922 182° South  Level FlightAware Approximate
09:46PM 21.9984 -81.4981 182° South  Level FlightAware Approximate
09:47PM 21.8743 -81.5039 182° South  Level FlightAware Approximate
09:48PM 21.7502 -81.5097 182° South  Level FlightAware Approximate
09:49PM 21.6261 -81.5154 182° South  Level FlightAware Approximate
09:50PM 21.5147 -81.5687 210° Southwest  Level FlightAware Approximate
09:51PM 21.4066 -81.6346 210° Southwest  Level FlightAware Approximate
09:52PM 21.2985 -81.7003 210° Southwest  Level FlightAware Approximate
09:53PM 21.1902 -81.7655 209° Southwest  Level FlightAware Approximate
09:54PM 21.0812 -81.8294 209° Southwest  Level FlightAware Approximate
09:55PM 20.9722 -81.8932 209° Southwest  Level FlightAware Approximate
09:56PM 20.8632 -81.9569 209° Southwest  Level FlightAware Approximate
09:57PM 20.7542 -82.0206 209° Southwest  Level FlightAware Approximate
09:58PM 20.6451 -82.0841 209° Southwest  Level FlightAware Approximate
09:59PM 20.5360 -82.1475 209° Southwest  Level FlightAware Approximate
10:00PM 20.4269 -82.2109 209° Southwest  Level FlightAware Approximate
10:01PM 20.3177 -82.2741 209° Southwest  Level FlightAware Approximate
10:02PM 20.2085 -82.3373 209° Southwest  Level FlightAware Approximate
10:03PM 20.0993 -82.4000 180° South  Level FlightAware Approximate
10:04PM 19.9872 -82.4484 210° Southwest  Level FlightAware Approximate
10:05PM 19.8793 -82.5140 210° Southwest  Level FlightAware Approximate
10:06PM 19.7715 -82.5795 210° Southwest  Level FlightAware Approximate
10:07PM 19.6636 -82.6449 210° Southwest  Level FlightAware Approximate
10:08PM 19.5551 -82.7090 208° Southwest  Level FlightAware Approximate
10:09PM 19.4457 -82.7714 208° Southwest  Level FlightAware Approximate
10:10PM 19.3362 -82.8337 208° Southwest  Level FlightAware Approximate
10:11PM 19.2268 -82.8959 208° Southwest  Level FlightAware Approximate
10:12PM 19.1173 -82.9581 208° Southwest  Level FlightAware Approximate
10:13PM 19.0078 -83.0201 208° Southwest  Level FlightAware Approximate
10:14PM 18.8983 -83.0821 208° Southwest  Level FlightAware Approximate
10:15PM 18.7894 -83.1452 209° Southwest  Level FlightAware Approximate
10:16PM 18.6807 -83.2087 209° Southwest  Level FlightAware Approximate
10:17PM 18.5720 -83.2721 209° Southwest  Level FlightAware Approximate
10:18PM 18.4633 -83.3354 209° Southwest  Level FlightAware Approximate
10:19PM 18.3545 -83.3987 209° Southwest  Level FlightAware Approximate
10:20PM 18.2458 -83.4619 209° Southwest  Level FlightAware Approximate
10:21PM 18.1370 -83.5249 209° Southwest  Level FlightAware Approximate
10:22PM 18.0282 -83.5880 209° Southwest  Level FlightAware Approximate
10:23PM 17.9193 -83.6509 209° Southwest  Level FlightAware Approximate
10:24PM 17.8105 -83.7138 209° Southwest  Level FlightAware Approximate
10:25PM 17.7016 -83.7765 209° Southwest  Level FlightAware Approximate
10:26PM 17.5927 -83.8392 209° Southwest  Level FlightAware Approximate
10:27PM 17.4838 -83.9019 209° Southwest  Level FlightAware Approximate
10:28PM 17.3734 -83.9613 202° Southwest  Level FlightAware Approximate
10:29PM 17.2583 -84.0101 202° Southwest  Level FlightAware Approximate
10:30PM 17.1431 -84.0589 202° Southwest  Level FlightAware Approximate
10:31PM 17.0280 -84.1076 202° Southwest  Level FlightAware Approximate
10:32PM 16.9128 -84.1562 202° Southwest  Level FlightAware Approximate
10:33PM 16.7976 -84.2048 202° Southwest  Level FlightAware Approximate
10:34PM 16.6824 -84.2533 202° Southwest  Level FlightAware Approximate
10:35PM 16.5672 -84.3018 202° Southwest  Level FlightAware Approximate
10:36PM 16.4526 -84.3500 202° Southwest  Level FlightAware Approximate
10:37PM 16.3380 -84.3980 202° Southwest  Level FlightAware Approximate
10:38PM 16.2234 -84.4462 202° Southwest  Level FlightAware Approximate
10:39PM 16.1088 -84.4942 202° Southwest  Level FlightAware Approximate
10:40PM 15.9942 -84.5422 202° Southwest  Level FlightAware Approximate
10:41PM 15.8796 -84.5902 202° Southwest  Level FlightAware Approximate
10:42PM 15.7650 -84.6381 202° Southwest  Level FlightAware Approximate
10:43PM 15.6503 -84.6860 202° Southwest  Level FlightAware Approximate
10:44PM 15.5360 -84.7347 203° Southwest  Level FlightAware Approximate
10:45PM 15.4219 -84.7837 202° Southwest  Level FlightAware Approximate
10:46PM 15.3077 -84.8327 202° Southwest  Level FlightAware Approximate
10:47PM 15.1936 -84.8816 202° Southwest  Level FlightAware Approximate
10:48PM 15.0794 -84.9305 202° Southwest  Level FlightAware Approximate
10:49PM 14.9652 -84.9793 202° Southwest  Level FlightAware Approximate
10:50PM 14.8510 -85.0282 203° Southwest  Level FlightAware Approximate
10:51PM 14.7366 -85.0763 202° Southwest  Level FlightAware Approximate
10:52PM 14.6219 -85.1238 202° Southwest  Level FlightAware Approximate
10:53PM 14.5072 -85.1712 202° Southwest  Level FlightAware Approximate
10:54PM 14.3925 -85.2186 202° Southwest  Level FlightAware Approximate
10:55PM 14.2778 -85.2660 202° Southwest  Level FlightAware Approximate
10:56PM 14.1630 -85.3133 202° Southwest  Level FlightAware Approximate
10:57PM 14.0483 -85.3605 202° Southwest  Level FlightAware Approximate
10:58PM 13.9373 -85.4122 199° South  Level FlightAware Approximate
10:59PM 13.8213 -85.4560 206° Southwest  Level FlightAware Approximate
11:00PM 13.7099 -85.5108 204° Southwest  Level FlightAware Approximate
11:01PM 13.5971 -85.5629 204° Southwest  Level FlightAware Approximate
11:02PM 13.4833 -85.6119 199° South  Level FlightAware Approximate
11:03PM 13.3666 -85.6536 199° South  Level FlightAware Approximate
11:04PM 13.2506 -85.6974 203° Southwest  Level FlightAware Approximate
11:05PM 13.1366 -85.7462 203° Southwest  Level FlightAware Approximate
11:06PM 13.0229 -85.7957 204° Southwest  Level FlightAware Approximate
11:07PM 12.9099 -85.8470 204° Southwest  Level FlightAware Approximate
11:08PM 12.7956 -85.8951 201° Southwest  Level FlightAware Approximate
11:09PM 12.6806 -85.9414 202° Southwest  Level FlightAware Approximate
11:10PM 12.5662 -85.9891 202° Southwest  Level FlightAware Approximate
11:11PM 12.4504 -86.0332 198° South  Level FlightAware Approximate
11:12PM 12.3485 -86.0839 201° Southwest  Level FlightAware Approximate
11:13PM 12.2320 -86.1253 194° South  Level FlightAware Approximate
11:14PM 12.1451 -86.1549 44° Northeast  Level FlightAware Approximate
11:15PM 12.1500 -86.1500 44° Northeast  Level FlightAware Approximate
11:16PM 12.1415 -86.1682 44° Northeast  Level Estimated
11:17PM 12.1415 -86.1682 44° Northeast  Level Estimated
11:18PM 12.1415 -86.1682 44° Northeast  Level Estimated